sensor_id;sensor_type;location;lat;lon;timestamp;pressure;altitude;pressure_sealevel;temperature;humidity
78932;BME280;68331;53.362;55.932;2024-02-28T00:02:01;102485.72;;;-10.89;52.23
78932;BME280;68331;53.362;55.932;2024-02-28T00:04:27;102503.38;;;-10.82;52.13
78932;BME280;68331;53.362;55.932;2024-02-28T00:06:53;102483.03;;;-10.91;52.38
78932;BME280;68331;53.362;55.932;2024-02-28T00:09:18;102473.25;;;-10.86;52.53
78932;BME280;68331;53.362;55.932;2024-02-28T00:11:46;102499.94;;;-10.65;52.17
78932;BME280;68331;53.362;55.932;2024-02-28T00:21:42;102489.44;;;-10.77;52.46
78932;BME280;68331;53.362;55.932;2024-02-28T00:24:09;102486.88;;;-10.77;52.40
78932;BME280;68331;53.362;55.932;2024-02-28T00:26:35;102507.59;;;-10.74;52.25
78932;BME280;68331;53.362;55.932;2024-02-28T00:29:02;102416.19;;;-11.23;52.60
78932;BME280;68331;53.362;55.932;2024-02-28T00:31:28;102512.84;;;-10.81;52.52
78932;BME280;68331;53.362;55.932;2024-02-28T00:33:54;102496.81;;;-10.89;52.51
78932;BME280;68331;53.362;55.932;2024-02-28T00:36:20;102439.88;;;-11.24;52.38
78932;BME280;68331;53.362;55.932;2024-02-28T00:38:46;102476.28;;;-11.08;52.60
78932;BME280;68331;53.362;55.932;2024-02-28T00:41:12;102504.31;;;-10.90;52.90
78932;BME280;68331;53.362;55.932;2024-02-28T00:43:38;102503.84;;;-10.86;53.05
78932;BME280;68331;53.362;55.932;2024-02-28T00:46:04;102479.41;;;-10.93;53.06
78932;BME280;68331;53.362;55.932;2024-02-28T00:48:30;102501.13;;;-10.79;52.51
78932;BME280;68331;53.362;55.932;2024-02-28T00:50:56;102481.50;;;-10.97;52.62
78932;BME280;68331;53.362;55.932;2024-02-28T00:53:22;102499.06;;;-10.92;52.72
78932;BME280;68331;53.362;55.932;2024-02-28T00:55:48;102484.06;;;-10.97;52.74
78932;BME280;68331;53.362;55.932;2024-02-28T00:58:14;102486.78;;;-11.05;53.04
78932;BME280;68331;53.362;55.932;2024-02-28T01:00:41;102485.56;;;-11.08;53.13
78932;BME280;68331;53.362;55.932;2024-02-28T01:03:07;102473.75;;;-11.16;53.25
78932;BME280;68331;53.362;55.932;2024-02-28T01:05:34;102471.63;;;-11.20;53.49
78932;BME280;68331;53.362;55.932;2024-02-28T01:08:01;102483.03;;;-11.17;53.79
78932;BME280;68331;53.362;55.932;2024-02-28T01:10:33;102484.69;;;-11.17;54.00
78932;BME280;68331;53.362;55.932;2024-02-28T01:13:00;102491.91;;;-11.13;53.99
78932;BME280;68331;53.362;55.932;2024-02-28T01:15:26;102491.28;;;-11.11;53.97
78932;BME280;68331;53.362;55.932;2024-02-28T01:17:52;102481.09;;;-11.19;53.85
78932;BME280;68331;53.362;55.932;2024-02-28T01:20:18;102482.75;;;-11.29;54.00
78932;BME280;68331;53.362;55.932;2024-02-28T01:22:44;102452.91;;;-11.56;54.22
78932;BME280;68331;53.362;55.932;2024-02-28T01:25:10;102466.13;;;-11.51;54.45
78932;BME280;68331;53.362;55.932;2024-02-28T01:27:36;102487.69;;;-11.39;54.88
78932;BME280;68331;53.362;55.932;2024-02-28T01:30:02;102491.25;;;-11.45;54.81
78932;BME280;68331;53.362;55.932;2024-02-28T01:32:31;102473.75;;;-11.51;54.82
78932;BME280;68331;53.362;55.932;2024-02-28T01:34:57;102486.16;;;-11.45;54.57
78932;BME280;68331;53.362;55.932;2024-02-28T01:37:23;102489.31;;;-11.57;54.50
78932;BME280;68331;53.362;55.932;2024-02-28T01:39:48;102490.81;;;-11.67;54.87
78932;BME280;68331;53.362;55.932;2024-02-28T01:42:14;102474.63;;;-11.77;54.82
78932;BME280;68331;53.362;55.932;2024-02-28T01:44:44;102487.47;;;-11.75;55.04
78932;BME280;68331;53.362;55.932;2024-02-28T01:47:12;102480.88;;;-11.82;55.29
78932;BME280;68331;53.362;55.932;2024-02-28T01:49:39;102484.31;;;-11.81;55.37
78932;BME280;68331;53.362;55.932;2024-02-28T01:52:06;102455.56;;;-11.98;55.69
78932;BME280;68331;53.362;55.932;2024-02-28T01:54:34;102479.09;;;-11.83;55.60
78932;BME280;68331;53.362;55.932;2024-02-28T01:57:01;102471.47;;;-11.83;55.70
78932;BME280;68331;53.362;55.932;2024-02-28T01:59:28;102471.59;;;-11.81;55.51
78932;BME280;68331;53.362;55.932;2024-02-28T02:01:55;102470.88;;;-11.80;55.61
78932;BME280;68331;53.362;55.932;2024-02-28T02:04:21;102463.22;;;-11.80;55.51
78932;BME280;68331;53.362;55.932;2024-02-28T02:06:48;102466.50;;;-11.81;55.63
78932;BME280;68331;53.362;55.932;2024-02-28T02:09:15;102464.72;;;-11.82;55.93
78932;BME280;68331;53.362;55.932;2024-02-28T02:11:41;102457.69;;;-11.76;55.98
78932;BME280;68331;53.362;55.932;2024-02-28T02:14:08;102468.50;;;-11.70;56.02
78932;BME280;68331;53.362;55.932;2024-02-28T02:16:35;102475.66;;;-11.66;56.07
78932;BME280;68331;53.362;55.932;2024-02-28T02:19:01;102477.03;;;-11.61;55.99
78932;BME280;68331;53.362;55.932;2024-02-28T02:21:34;102471.50;;;-11.57;55.59
78932;BME280;68331;53.362;55.932;2024-02-28T02:24:03;102478.66;;;-11.61;54.98
78932;BME280;68331;53.362;55.932;2024-02-28T02:26:29;102477.03;;;-11.69;54.83
78932;BME280;68331;53.362;55.932;2024-02-28T02:28:55;102455.59;;;-11.80;55.02
78932;BME280;68331;53.362;55.932;2024-02-28T02:31:21;102469.66;;;-11.75;55.41
78932;BME280;68331;53.362;55.932;2024-02-28T02:33:47;102473.28;;;-11.73;54.92
78932;BME280;68331;53.362;55.932;2024-02-28T02:36:13;102473.56;;;-11.70;55.22
78932;BME280;68331;53.362;55.932;2024-02-28T02:38:39;102483.31;;;-11.66;55.13
78932;BME280;68331;53.362;55.932;2024-02-28T02:41:05;102482.25;;;-11.59;54.90
78932;BME280;68331;53.362;55.932;2024-02-28T02:43:31;102494.13;;;-11.51;54.91
78932;BME280;68331;53.362;55.932;2024-02-28T02:45:57;102488.41;;;-11.49;54.94
78932;BME280;68331;53.362;55.932;2024-02-28T02:48:23;102483.78;;;-11.44;54.77
78932;BME280;68331;53.362;55.932;2024-02-28T02:50:49;102479.59;;;-11.35;54.98
78932;BME280;68331;53.362;55.932;2024-02-28T02:53:15;102480.94;;;-11.30;54.91
78932;BME280;68331;53.362;55.932;2024-02-28T02:55:41;102478.69;;;-11.27;55.00
78932;BME280;68331;53.362;55.932;2024-02-28T02:58:07;102489.34;;;-11.22;55.19
78932;BME280;68331;53.362;55.932;2024-02-28T03:00:32;102488.41;;;-11.14;55.14
78932;BME280;68331;53.362;55.932;2024-02-28T03:02:58;102489.19;;;-11.15;54.73
78932;BME280;68331;53.362;55.932;2024-02-28T03:05:24;102492.47;;;-11.07;55.16
78932;BME280;68331;53.362;55.932;2024-02-28T03:07:50;102496.66;;;-10.99;55.41
78932;BME280;68331;53.362;55.932;2024-02-28T03:10:16;102471.03;;;-11.09;54.78
78932;BME280;68331;53.362;55.932;2024-02-28T03:12:43;102495.00;;;-10.98;54.20
78932;BME280;68331;53.362;55.932;2024-02-28T03:15:09;102502.53;;;-11.00;54.54
78932;BME280;68331;53.362;55.932;2024-02-28T03:17:35;102488.88;;;-11.01;54.68
78932;BME280;68331;53.362;55.932;2024-02-28T03:20:01;102483.03;;;-10.99;54.64
78932;BME280;68331;53.362;55.932;2024-02-28T03:22:27;102477.75;;;-10.92;54.73
78932;BME280;68331;53.362;55.932;2024-02-28T03:24:56;102498.59;;;-10.79;54.44
78932;BME280;68331;53.362;55.932;2024-02-28T03:27:22;102496.31;;;-10.67;54.43
78932;BME280;68331;53.362;55.932;2024-02-28T03:29:48;102498.53;;;-10.53;54.30
78932;BME280;68331;53.362;55.932;2024-02-28T03:32:14;102496.13;;;-10.51;54.33
78932;BME280;68331;53.362;55.932;2024-02-28T03:34:40;102507.94;;;-10.43;54.24
78932;BME280;68331;53.362;55.932;2024-02-28T03:37:06;102506.56;;;-10.31;53.61
78932;BME280;68331;53.362;55.932;2024-02-28T03:39:32;102515.03;;;-10.13;53.41
78932;BME280;68331;53.362;55.932;2024-02-28T03:41:58;102467.44;;;-10.21;53.04
78932;BME280;68331;53.362;55.932;2024-02-28T03:44:24;102499.44;;;-9.89;52.43
78932;BME280;68331;53.362;55.932;2024-02-28T03:46:51;102512.91;;;-9.81;52.40
78932;BME280;68331;53.362;55.932;2024-02-28T03:49:17;102496.94;;;-9.70;52.21
78932;BME280;68331;53.362;55.932;2024-02-28T03:51:43;102497.19;;;-9.67;51.94
78932;BME280;68331;53.362;55.932;2024-02-28T03:54:09;102483.59;;;-9.76;51.97
78932;BME280;68331;53.362;55.932;2024-02-28T03:56:35;102475.25;;;-9.65;52.13
78932;BME280;68331;53.362;55.932;2024-02-28T03:59:01;102494.59;;;-9.39;51.54
78932;BME280;68331;53.362;55.932;2024-02-28T04:01:27;102492.13;;;-9.29;51.18
78932;BME280;68331;53.362;55.932;2024-02-28T04:03:53;102497.31;;;-9.19;51.04
78932;BME280;68331;53.362;55.932;2024-02-28T04:06:19;102498.78;;;-9.12;50.83
78932;BME280;68331;53.362;55.932;2024-02-28T04:08:45;102497.84;;;-9.13;50.46
78932;BME280;68331;53.362;55.932;2024-02-28T04:11:11;102504.06;;;-9.19;50.22
78932;BME280;68331;53.362;55.932;2024-02-28T04:13:36;102498.41;;;-9.25;50.29
78932;BME280;68331;53.362;55.932;2024-02-28T04:16:03;102465.09;;;-9.54;50.32
78932;BME280;68331;53.362;55.932;2024-02-28T04:18:29;102499.22;;;-9.35;50.45
78932;BME280;68331;53.362;55.932;2024-02-28T04:20:56;102500.06;;;-9.26;50.46
78932;BME280;68331;53.362;55.932;2024-02-28T04:23:22;102491.16;;;-9.21;50.21
78932;BME280;68331;53.362;55.932;2024-02-28T04:25:48;102494.91;;;-9.17;49.76
78932;BME280;68331;53.362;55.932;2024-02-28T04:28:14;102503.31;;;-8.99;49.91
78932;BME280;68331;53.362;55.932;2024-02-28T04:30:40;102492.31;;;-8.79;49.32
78932;BME280;68331;53.362;55.932;2024-02-28T04:33:06;102496.16;;;-8.45;48.60
78932;BME280;68331;53.362;55.932;2024-02-28T04:35:32;102490.34;;;-8.03;47.81
78932;BME280;68331;53.362;55.932;2024-02-28T04:37:59;102494.72;;;-7.82;46.79
78932;BME280;68331;53.362;55.932;2024-02-28T04:40:25;102483.56;;;-7.82;47.08
78932;BME280;68331;53.362;55.932;2024-02-28T04:42:52;102482.69;;;-7.83;46.99
78932;BME280;68331;53.362;55.932;2024-02-28T04:45:18;102488.22;;;-7.78;46.90
78932;BME280;68331;53.362;55.932;2024-02-28T04:47:44;102496.25;;;-7.63;46.71
78932;BME280;68331;53.362;55.932;2024-02-28T04:50:10;102494.84;;;-7.29;45.52
78932;BME280;68331;53.362;55.932;2024-02-28T04:52:37;102497.88;;;-7.03;44.89
78932;BME280;68331;53.362;55.932;2024-02-28T04:55:03;102497.44;;;-6.87;44.38
78932;BME280;68331;53.362;55.932;2024-02-28T04:57:30;102481.00;;;-6.79;44.38
78932;BME280;68331;53.362;55.932;2024-02-28T04:59:56;102494.00;;;-6.55;43.90
78932;BME280;68331;53.362;55.932;2024-02-28T05:02:22;102488.19;;;-6.20;43.45
78932;BME280;68331;53.362;55.932;2024-02-28T05:04:48;102474.06;;;-5.12;41.70
78932;BME280;68331;53.362;55.932;2024-02-28T05:07:14;102480.34;;;-3.88;38.49
78932;BME280;68331;53.362;55.932;2024-02-28T05:09:40;102485.78;;;-3.20;38.23
78932;BME280;68331;53.362;55.932;2024-02-28T05:12:06;102469.97;;;-2.59;37.13
78932;BME280;68331;53.362;55.932;2024-02-28T05:14:32;102483.00;;;-2.02;35.90
78932;BME280;68331;53.362;55.932;2024-02-28T05:16:58;102476.00;;;-1.90;35.07
78932;BME280;68331;53.362;55.932;2024-02-28T05:19:24;102472.94;;;-1.98;35.38
78932;BME280;68331;53.362;55.932;2024-02-28T05:21:50;102478.44;;;-2.06;35.16
78932;BME280;68331;53.362;55.932;2024-02-28T05:24:16;102464.97;;;-2.29;35.37
78932;BME280;68331;53.362;55.932;2024-02-28T05:26:42;102478.31;;;-2.36;35.78
78932;BME280;68331;53.362;55.932;2024-02-28T05:29:08;102473.47;;;-1.60;35.28
78932;BME280;68331;53.362;55.932;2024-02-28T05:31:34;102461.44;;;-1.15;34.16
78932;BME280;68331;53.362;55.932;2024-02-28T05:34:02;102470.50;;;-1.81;34.74
78932;BME280;68331;53.362;55.932;2024-02-28T05:36:29;102465.59;;;-2.05;35.51
78932;BME280;68331;53.362;55.932;2024-02-28T05:38:58;102470.53;;;-2.23;35.60
78932;BME280;68331;53.362;55.932;2024-02-28T05:41:24;102470.66;;;-2.35;35.63
78932;BME280;68331;53.362;55.932;2024-02-28T05:43:50;102480.81;;;-2.51;36.17
78932;BME280;68331;53.362;55.932;2024-02-28T05:46:16;102485.50;;;-2.98;36.78
78932;BME280;68331;53.362;55.932;2024-02-28T05:48:43;102481.84;;;-3.02;37.47
78932;BME280;68331;53.362;55.932;2024-02-28T05:51:11;102483.88;;;-3.36;37.53
78932;BME280;68331;53.362;55.932;2024-02-28T05:53:37;102483.19;;;-3.34;38.21
78932;BME280;68331;53.362;55.932;2024-02-28T05:56:07;102488.84;;;-3.13;38.50
78932;BME280;68331;53.362;55.932;2024-02-28T05:58:44;102480.38;;;-2.30;37.04
78932;BME280;68331;53.362;55.932;2024-02-28T06:01:10;102476.78;;;-0.89;34.80
78932;BME280;68331;53.362;55.932;2024-02-28T06:03:37;102469.25;;;0.43;32.54
78932;BME280;68331;53.362;55.932;2024-02-28T06:06:04;102461.75;;;1.55;31.17
78932;BME280;68331;53.362;55.932;2024-02-28T06:08:35;102451.00;;;3.49;28.42
78932;BME280;68331;53.362;55.932;2024-02-28T06:11:03;102458.13;;;4.24;27.04
78932;BME280;68331;53.362;55.932;2024-02-28T06:13:29;102451.72;;;4.64;26.30
78932;BME280;68331;53.362;55.932;2024-02-28T06:15:55;102452.94;;;4.75;25.61
78932;BME280;68331;53.362;55.932;2024-02-28T06:18:22;102455.59;;;6.15;24.74
78932;BME280;68331;53.362;55.932;2024-02-28T06:20:50;102457.94;;;7.04;23.27
78932;BME280;68331;53.362;55.932;2024-02-28T06:23:16;102453.63;;;7.82;22.27
78932;BME280;68331;53.362;55.932;2024-02-28T06:25:43;102451.25;;;8.87;21.19
78932;BME280;68331;53.362;55.932;2024-02-28T06:28:09;102437.69;;;9.74;20.39
78932;BME280;68331;53.362;55.932;2024-02-28T06:30:35;102443.66;;;10.28;19.62
78932;BME280;68331;53.362;55.932;2024-02-28T06:33:01;102432.00;;;11.01;19.30
78932;BME280;68331;53.362;55.932;2024-02-28T06:35:27;102443.91;;;10.56;18.94
78932;BME280;68331;53.362;55.932;2024-02-28T06:37:53;102436.94;;;9.83;19.93
78932;BME280;68331;53.362;55.932;2024-02-28T06:40:20;102444.19;;;8.82;20.46
78932;BME280;68331;53.362;55.932;2024-02-28T06:42:46;102457.75;;;7.71;20.92
78932;BME280;68331;53.362;55.932;2024-02-28T06:45:12;102453.31;;;6.92;21.83
78932;BME280;68331;53.362;55.932;2024-02-28T06:47:38;102437.78;;;7.39;21.40
78932;BME280;68331;53.362;55.932;2024-02-28T06:50:05;102443.97;;;8.70;20.17
78932;BME280;68331;53.362;55.932;2024-02-28T06:52:33;102436.59;;;10.29;19.33
78932;BME280;68331;53.362;55.932;2024-02-28T06:55:00;102431.53;;;11.64;17.87
78932;BME280;68331;53.362;55.932;2024-02-28T06:57:29;102434.56;;;12.73;17.60
78932;BME280;68331;53.362;55.932;2024-02-28T06:59:55;102421.31;;;12.93;17.39
78932;BME280;68331;53.362;55.932;2024-02-28T07:02:21;102429.97;;;11.97;17.71
78932;BME280;68331;53.362;55.932;2024-02-28T07:04:47;102441.81;;;10.25;18.92
78932;BME280;68331;53.362;55.932;2024-02-28T07:07:13;102432.25;;;9.62;19.32
78932;BME280;68331;53.362;55.932;2024-02-28T07:09:39;102436.56;;;9.57;19.63
78932;BME280;68331;53.362;55.932;2024-02-28T07:12:06;102436.91;;;9.19;20.22
78932;BME280;68331;53.362;55.932;2024-02-28T07:14:32;102448.69;;;8.40;21.07
78932;BME280;68331;53.362;55.932;2024-02-28T07:16:58;102437.84;;;8.26;21.05
78932;BME280;68331;53.362;55.932;2024-02-28T07:19:24;102437.09;;;9.33;20.00
78932;BME280;68331;53.362;55.932;2024-02-28T07:21:50;102428.44;;;10.10;19.31
78932;BME280;68331;53.362;55.932;2024-02-28T07:24:16;102424.50;;;10.47;19.28
78932;BME280;68331;53.362;55.932;2024-02-28T07:26:42;102423.50;;;10.36;19.22
78932;BME280;68331;53.362;55.932;2024-02-28T07:29:08;102426.13;;;10.36;19.96
78932;BME280;68331;53.362;55.932;2024-02-28T07:31:34;102430.31;;;10.19;19.42
78932;BME280;68331;53.362;55.932;2024-02-28T07:34:00;102433.09;;;9.02;20.82
78932;BME280;68331;53.362;55.932;2024-02-28T07:36:26;102435.28;;;8.74;20.70
78932;BME280;68331;53.362;55.932;2024-02-28T07:38:51;102434.59;;;8.86;20.34
78932;BME280;68331;53.362;55.932;2024-02-28T07:41:18;102437.22;;;7.93;21.21
78932;BME280;68331;53.362;55.932;2024-02-28T07:43:44;102434.09;;;6.60;22.85
78932;BME280;68331;53.362;55.932;2024-02-28T07:46:10;102439.66;;;5.22;24.53
78932;BME280;68331;53.362;55.932;2024-02-28T07:48:37;102445.00;;;3.99;26.30
78932;BME280;68331;53.362;55.932;2024-02-28T07:51:07;102439.50;;;2.59;27.87
78932;BME280;68331;53.362;55.932;2024-02-28T07:53:34;102440.75;;;1.51;29.03
78932;BME280;68331;53.362;55.932;2024-02-28T07:56:00;102446.19;;;1.20;30.12
78932;BME280;68331;53.362;55.932;2024-02-28T07:58:26;102449.16;;;0.91;30.13
78932;BME280;68331;53.362;55.932;2024-02-28T08:00:53;102447.81;;;0.47;31.61
78932;BME280;68331;53.362;55.932;2024-02-28T08:03:19;102422.00;;;0.16;31.70
78932;BME280;68331;53.362;55.932;2024-02-28T08:05:45;102435.69;;;0.14;32.50
78932;BME280;68331;53.362;55.932;2024-02-28T08:08:13;102436.28;;;-0.08;32.63
78932;BME280;68331;53.362;55.932;2024-02-28T08:10:38;102436.75;;;-0.15;33.27
78932;BME280;68331;53.362;55.932;2024-02-28T08:13:05;102440.97;;;-0.17;32.85
78932;BME280;68331;53.362;55.932;2024-02-28T08:15:31;102424.25;;;-0.22;32.98
78932;BME280;68331;53.362;55.932;2024-02-28T08:17:58;102429.78;;;-0.16;33.51
78932;BME280;68331;53.362;55.932;2024-02-28T08:20:24;102421.59;;;-0.24;33.08
78932;BME280;68331;53.362;55.932;2024-02-28T08:22:50;102428.16;;;-0.31;33.16
78932;BME280;68331;53.362;55.932;2024-02-28T08:25:18;102424.06;;;-0.42;33.43
78932;BME280;68331;53.362;55.932;2024-02-28T08:27:44;102430.25;;;-0.40;33.51
78932;BME280;68331;53.362;55.932;2024-02-28T08:30:11;102428.53;;;-0.56;34.29
78932;BME280;68331;53.362;55.932;2024-02-28T08:32:37;102425.41;;;-0.65;34.03
78932;BME280;68331;53.362;55.932;2024-02-28T08:35:03;102422.28;;;-0.59;34.22
78932;BME280;68331;53.362;55.932;2024-02-28T08:37:29;102421.06;;;-0.66;34.74
78932;BME280;68331;53.362;55.932;2024-02-28T08:39:55;102418.19;;;-0.71;35.20
78932;BME280;68331;53.362;55.932;2024-02-28T08:42:26;102418.00;;;-0.74;35.34
78932;BME280;68331;53.362;55.932;2024-02-28T08:44:53;102420.53;;;-0.75;36.03
78932;BME280;68331;53.362;55.932;2024-02-28T08:47:24;102411.84;;;-0.92;36.49
78932;BME280;68331;53.362;55.932;2024-02-28T08:49:51;102411.31;;;-1.01;36.51
78932;BME280;68331;53.362;55.932;2024-02-28T08:52:18;102407.56;;;-1.06;35.49
78932;BME280;68331;53.362;55.932;2024-02-28T08:54:44;102377.69;;;-1.31;35.34
78932;BME280;68331;53.362;55.932;2024-02-28T08:57:10;102415.97;;;-1.10;36.10
78932;BME280;68331;53.362;55.932;2024-02-28T08:59:36;102405.44;;;-1.13;36.18
78932;BME280;68331;53.362;55.932;2024-02-28T09:02:02;102417.28;;;-1.02;36.56
78932;BME280;68331;53.362;55.932;2024-02-28T09:04:29;102405.59;;;-0.96;36.61
78932;BME280;68331;53.362;55.932;2024-02-28T09:06:55;102404.75;;;-0.80;36.52
78932;BME280;68331;53.362;55.932;2024-02-28T09:09:21;102407.47;;;-0.77;36.22
78932;BME280;68331;53.362;55.932;2024-02-28T09:11:47;102400.28;;;-0.82;36.71
78932;BME280;68331;53.362;55.932;2024-02-28T09:14:13;102396.72;;;-0.99;37.30
78932;BME280;68331;53.362;55.932;2024-02-28T09:16:39;102406.81;;;-0.89;37.22
78932;BME280;68331;53.362;55.932;2024-02-28T09:19:05;102388.28;;;-0.80;36.34
78932;BME280;68331;53.362;55.932;2024-02-28T09:21:31;102390.09;;;-0.63;36.08
78932;BME280;68331;53.362;55.932;2024-02-28T09:23:57;102404.13;;;-0.59;36.06
78932;BME280;68331;53.362;55.932;2024-02-28T09:26:23;102389.41;;;-0.60;36.36
78932;BME280;68331;53.362;55.932;2024-02-28T09:28:49;102388.41;;;-0.46;36.44
78932;BME280;68331;53.362;55.932;2024-02-28T09:31:15;102387.47;;;-0.32;35.97
78932;BME280;68331;53.362;55.932;2024-02-28T09:33:41;102389.91;;;-0.35;35.90
78932;BME280;68331;53.362;55.932;2024-02-28T09:36:07;102390.78;;;-0.34;36.01
78932;BME280;68331;53.362;55.932;2024-02-28T09:38:33;102387.69;;;-0.27;35.89
78932;BME280;68331;53.362;55.932;2024-02-28T09:41:01;102387.31;;;-0.18;35.80
78932;BME280;68331;53.362;55.932;2024-02-28T09:43:29;102384.06;;;-0.14;35.87
78932;BME280;68331;53.362;55.932;2024-02-28T09:46:00;102378.03;;;-0.13;36.26
78932;BME280;68331;53.362;55.932;2024-02-28T09:48:29;102383.97;;;0.01;35.81
78932;BME280;68331;53.362;55.932;2024-02-28T09:51:00;102379.88;;;0.22;35.32
78932;BME280;68331;53.362;55.932;2024-02-28T09:53:28;102373.38;;;0.30;35.23
78932;BME280;68331;53.362;55.932;2024-02-28T09:55:54;102365.94;;;0.38;35.94
78932;BME280;68331;53.362;55.932;2024-02-28T09:58:20;102377.16;;;0.37;35.43
78932;BME280;68331;53.362;55.932;2024-02-28T10:00:47;102377.25;;;0.38;35.44
78932;BME280;68331;53.362;55.932;2024-02-28T10:03:17;102375.38;;;0.36;36.30
78932;BME280;68331;53.362;55.932;2024-02-28T10:05:46;102372.78;;;0.36;35.58
78932;BME280;68331;53.362;55.932;2024-02-28T10:08:13;102365.94;;;0.38;35.71
78932;BME280;68331;53.362;55.932;2024-02-28T10:10:49;102371.19;;;0.56;35.67
78932;BME280;68331;53.362;55.932;2024-02-28T10:13:22;102368.06;;;0.63;35.19
78932;BME280;68331;53.362;55.932;2024-02-28T10:15:49;102363.31;;;0.54;35.25
78932;BME280;68331;53.362;55.932;2024-02-28T10:18:15;102363.34;;;0.38;36.05
78932;BME280;68331;53.362;55.932;2024-02-28T10:20:42;102362.63;;;0.22;35.78
78932;BME280;68331;53.362;55.932;2024-02-28T10:23:08;102366.09;;;0.23;36.14
78932;BME280;68331;53.362;55.932;2024-02-28T10:25:47;102360.75;;;0.38;35.64
78932;BME280;68331;53.362;55.932;2024-02-28T10:28:14;102359.28;;;0.43;35.45
78932;BME280;68331;53.362;55.932;2024-02-28T10:30:41;102353.28;;;0.44;35.48
78932;BME280;68331;53.362;55.932;2024-02-28T10:33:14;102361.25;;;0.65;35.22
78932;BME280;68331;53.362;55.932;2024-02-28T10:35:43;102354.22;;;0.80;35.30
78932;BME280;68331;53.362;55.932;2024-02-28T10:38:11;102346.72;;;0.86;34.85
78932;BME280;68331;53.362;55.932;2024-02-28T10:40:40;102346.03;;;0.90;35.07
78932;BME280;68331;53.362;55.932;2024-02-28T10:43:10;102353.69;;;0.87;35.15
78932;BME280;68331;53.362;55.932;2024-02-28T10:45:37;102339.25;;;0.94;35.49
78932;BME280;68331;53.362;55.932;2024-02-28T10:48:06;102352.59;;;1.02;35.45
78932;BME280;68331;53.362;55.932;2024-02-28T10:50:33;102341.78;;;0.92;35.74
78932;BME280;68331;53.362;55.932;2024-02-28T10:53:02;102348.16;;;0.63;35.53
78932;BME280;68331;53.362;55.932;2024-02-28T10:55:33;102350.06;;;0.32;35.09
78932;BME280;68331;53.362;55.932;2024-02-28T10:58:07;102363.03;;;0.14;35.50
78932;BME280;68331;53.362;55.932;2024-02-28T11:00:34;102354.75;;;0.05;35.98
78932;BME280;68331;53.362;55.932;2024-02-28T11:03:02;102346.75;;;0.00;36.03
78932;BME280;68331;53.362;55.932;2024-02-28T11:05:43;102356.06;;;-0.04;36.84
78932;BME280;68331;53.362;55.932;2024-02-28T11:08:23;102353.44;;;-0.21;36.97
78932;BME280;68331;53.362;55.932;2024-02-28T11:10:56;102346.03;;;-0.30;36.76
78932;BME280;68331;53.362;55.932;2024-02-28T11:13:24;102341.41;;;-0.36;36.90
78932;BME280;68331;53.362;55.932;2024-02-28T11:15:50;102347.09;;;-0.27;36.33
78932;BME280;68331;53.362;55.932;2024-02-28T11:18:16;102346.28;;;-0.09;36.73
78932;BME280;68331;53.362;55.932;2024-02-28T11:20:43;102347.56;;;-0.01;36.85
78932;BME280;68331;53.362;55.932;2024-02-28T11:23:12;102332.66;;;-0.05;36.82
78932;BME280;68331;53.362;55.932;2024-02-28T11:25:42;102339.94;;;-0.14;36.85
78932;BME280;68331;53.362;55.932;2024-02-28T11:28:09;102345.88;;;-0.17;37.35
78932;BME280;68331;53.362;55.932;2024-02-28T11:30:36;102335.09;;;-0.08;37.59
78932;BME280;68331;53.362;55.932;2024-02-28T11:33:02;102337.25;;;0.01;37.84
78932;BME280;68331;53.362;55.932;2024-02-28T11:35:28;102330.53;;;0.04;37.81
78932;BME280;68331;53.362;55.932;2024-02-28T11:37:55;102341.53;;;0.16;37.49
78932;BME280;68331;53.362;55.932;2024-02-28T11:40:24;102329.66;;;0.21;37.05
78932;BME280;68331;53.362;55.932;2024-02-28T11:42:56;102329.03;;;0.09;36.43
78932;BME280;68331;53.362;55.932;2024-02-28T11:45:23;102340.19;;;0.07;36.74
78932;BME280;68331;53.362;55.932;2024-02-28T11:47:50;102333.53;;;-0.05;36.58
78932;BME280;68331;53.362;55.932;2024-02-28T11:50:16;102323.03;;;-0.24;36.43
78932;BME280;68331;53.362;55.932;2024-02-28T11:52:45;102332.75;;;-0.36;37.09
78932;BME280;68331;53.362;55.932;2024-02-28T11:55:11;102326.19;;;-0.46;38.42
78932;BME280;68331;53.362;55.932;2024-02-28T11:57:37;102328.56;;;-0.51;38.18
78932;BME280;68331;53.362;55.932;2024-02-28T12:00:07;102328.13;;;-0.58;37.97
78932;BME280;68331;53.362;55.932;2024-02-28T12:02:36;102331.28;;;-0.64;38.28
78932;BME280;68331;53.362;55.932;2024-02-28T12:05:03;102327.06;;;-0.62;38.26
78932;BME280;68331;53.362;55.932;2024-02-28T12:07:30;102323.59;;;-0.62;38.13
78932;BME280;68331;53.362;55.932;2024-02-28T12:10:06;102319.06;;;-0.66;37.96
78932;BME280;68331;53.362;55.932;2024-02-28T12:12:32;102315.31;;;-0.72;38.58
78932;BME280;68331;53.362;55.932;2024-02-28T12:14:59;102319.66;;;-0.87;38.75
78932;BME280;68331;53.362;55.932;2024-02-28T12:17:26;102311.16;;;-1.01;38.95
78932;BME280;68331;53.362;55.932;2024-02-28T12:19:52;102310.91;;;-1.05;39.38
78932;BME280;68331;53.362;55.932;2024-02-28T12:22:19;102314.28;;;-1.06;39.32
78932;BME280;68331;53.362;55.932;2024-02-28T12:24:45;102318.69;;;-1.05;39.78
78932;BME280;68331;53.362;55.932;2024-02-28T12:27:11;102314.41;;;-1.05;39.67
78932;BME280;68331;53.362;55.932;2024-02-28T12:29:36;102312.16;;;-0.99;39.82
78932;BME280;68331;53.362;55.932;2024-02-28T12:32:03;102317.31;;;-0.99;40.07
78932;BME280;68331;53.362;55.932;2024-02-28T12:34:29;102319.47;;;-1.06;39.84
78932;BME280;68331;53.362;55.932;2024-02-28T12:36:56;102307.00;;;-1.13;40.39
78932;BME280;68331;53.362;55.932;2024-02-28T12:39:22;102315.25;;;-1.21;40.61
78932;BME280;68331;53.362;55.932;2024-02-28T12:41:48;102311.50;;;-1.26;40.63
78932;BME280;68331;53.362;55.932;2024-02-28T12:44:14;102303.22;;;-1.35;41.10
78932;BME280;68331;53.362;55.932;2024-02-28T12:46:41;102302.25;;;-1.37;41.07